UUWWUSRR

Guest
Details From UUWW - Vnukovo
To USRR - Surgut
Flight Number -
Tags Generated
Created
Modified
Stats Distance 1,169 nm / 2,165 km
Max Altitude 0 ft / 0 m
Waypoints 7
Social Downloads 1
Likes 0
Share VATSIM

Download

Looking for another format? Having issues loading an existing format? Contact us
Advertisement - Login to hide

Notes

Generated

Route

UUWW KONRA DEPOR POBAL PITEP GK USRR

ID Type Via Altitude Latitude Longitude Leg Dist Tot Dist Heading (true) Name
O UUWW APT - 0 ft / 0 m 55.58804˚ 37.24603˚ - 0 nm - -
KONRA FIX - 0 ft / 0 m 57.45000˚ 43.30333˚ 229 nm 229 nm 58° / 63° -
DEPOR FIX - 0 ft / 0 m 59.21667˚ 50.86667˚ 260 nm 490 nm 63° / 69° -
POBAL FIX - 0 ft / 0 m 60.28333˚ 57.60000˚ 213 nm 703 nm 70° / 75° -
PITEP FIX - 0 ft / 0 m 61.03333˚ 65.98333˚ 250 nm 954 nm 76° / 83° -
GK NDB - 0 ft / 0 m 61.34333˚ 73.30000˚ 212 nm 1166 nm 82° / 88° SURGUT NDB
O USRR APT - 0 ft / 0 m 61.34364˚ 73.37581˚ 2 nm 1169 nm 89° / 90° -

Altitude Profile

Advertisement - Login to hide

Weather


0- 5 10 15 20 25 30 35+ Temperature / ° C

Clouds and Precipitation
Forecast for 2017-12-13 12:00 UTC. Updated 42 minutes ago

Ground ~20,000 ft ~40,000 ft Winds

UUWW

Details ICAO UUWW (VKO)
Name VNUKOVO
Region Russia
Timezone Europe/Moscow (UTC+3.0)
Stats Elevation 685 ft / 209 m (AMSL)
Location 55.596061° 37.267664°
Runways 2
Magnetic Variation 10.959° E

METAR

UUWW 130800Z 21004MPS 2600 R24/1700N BR OVC002 02/02 Q1009 R24/290050 TEMPO 1200 BR RMK QBB060

Decode

TAF

TAF UUWW 130453Z 1306/1406 19004MPS 1500 BR OVC002 TX03/1310Z TNM00/1403Z TEMPO 1306/1308 0700 FG OVC001 FM130800 25005MPS 6000 BKN008 TEMPO 1308/1318 2100 -SNRA OVC004 TEMPO 1318/1403 1100 SHSN BKN004 BKN010CB

Decode

Departure Runways

ID Width Length Bearing (true) Bearing (mag) Surface Threshold Offset Overrun Length
02 197 ft / 60 m 9,993 ft / 3,046 m 23.36° 12.40° Asphalt 0 ft / 0 m 140 ft / 43 m
06 197 ft / 60 m 9,785 ft / 2,982 m 68.26° 57.30° Asphalt 0 ft / 0 m 250 ft / 76 m
20 197 ft / 60 m 9,993 ft / 3,046 m 203.37° 192.41° Asphalt 0 ft / 0 m 150 ft / 46 m
24 197 ft / 60 m 9,785 ft / 2,982 m 248.29° 237.33° Asphalt 0 ft / 0 m 260 ft / 79 m

USRR

Details ICAO USRR (SGC)
Name SURGUT
Region Russia
Timezone Asia/Yekaterinburg (UTC+5.0)
Stats Elevation 200 ft / 61 m (AMSL)
Location 61.343693° 73.401842°
Runways 1
Magnetic Variation 17.100° E

METAR

USRR 130800Z 23002MPS 6000 SCT011 M19/M21 Q1037 R25/32//45 NOSIG RMK OBST OBSC QFE773

Decode

TAF

TAF TAF USRR 130455Z 1306/1406 24004MPS 3100 - SN BR BKN005 OVC010 TEMPO 1306/1312 1000 BR OVC003

Decode

Destination Runways

ID Width Length Bearing (true) Bearing (mag) Surface Threshold Offset Overrun Length
07 148 ft / 45 m 9,112 ft / 2,778 m 89.72° 72.62° Asphalt 0 ft / 0 m 165 ft / 50 m
25 148 ft / 45 m 9,112 ft / 2,778 m 269.76° 252.66° Asphalt 0 ft / 0 m 165 ft / 50 m

Popular Alternatives